Time;durP1;ratioP1;P1;durP2;ratioP2;P2;SDS_P1;SDS_P2;PMS_P1;PMS_P2;Temp;Humidity;BMP_temperature;BMP_pressure;BME280_temperature;BME280_humidity;BME280_pressure;Samples;Min_cycle;Max_cycle;Signal;HPM_P1;HPM_P2
2021/05/02 00:02:27;;;;;;;39.10;34.97;;;;;;;10.15;68.67;101143.66;6117030;29;20637;-56
2021/05/02 00:05:47;;;;;;;43.43;38.80;;;;;;;10.20;68.67;101145.38;6117386;29;20547;-55
2021/05/02 00:09:09;;;;;;;39.00;35.00;;;;;;;10.21;68.43;101144.50;6114310;29;20535;-56
2021/05/02 00:12:30;;;;;;;40.13;36.07;;;;;;;10.40;67.37;101132.31;6114038;29;20341;-59
2021/05/02 00:15:50;;;;;;;41.27;37.20;;;;;;;10.36;67.95;101147.97;6114382;29;20266;-54
2021/05/02 00:19:12;;;;;;;41.93;37.73;;;;;;;10.49;67.68;101141.84;6115600;29;20236;-57
2021/05/02 00:22:34;;;;;;;40.43;36.07;;;;;;;10.62;67.03;101145.25;6119309;29;20606;-56
2021/05/02 00:25:56;;;;;;;38.70;34.70;;;;;;;10.50;67.01;101132.31;6118671;28;20236;-55
2021/05/02 00:29:18;;;;;;;40.53;36.23;;;;;;;10.37;67.69;101132.34;6100055;28;20248;-53
2021/05/02 00:32:43;;;;;;;39.80;35.77;;;;;;;10.46;67.83;101127.97;6112921;29;20319;-57
2021/05/02 00:36:04;;;;;;;41.20;36.93;;;;;;;10.49;67.87;101122.75;6090868;28;20239;-57
2021/05/02 00:39:25;;;;;;;40.43;36.30;;;;;;;10.50;68.16;101134.91;6100706;28;20236;-56
2021/05/02 00:42:49;;;;;;;41.33;37.10;;;;;;;10.64;67.21;101126.19;6097334;29;20606;-57
2021/05/02 00:46:14;;;;;;;41.07;36.77;;;;;;;10.55;67.52;101126.22;6113877;29;20239;-55
2021/05/02 00:49:39;;;;;;;41.13;36.83;;;;;;;10.60;67.65;101124.47;6099597;29;20228;-54
2021/05/02 00:53:20;;;;;;;38.77;34.93;;;;;;;10.54;67.89;101123.59;6117800;28;20764;-56
2021/05/02 00:56:53;;;;;;;38.23;34.53;;;;;;;10.54;68.97;101124.47;6111858;28;20252;-56
2021/05/02 01:00:18;;;;;;;38.40;34.53;;;;;;;10.57;68.60;101124.47;6107383;28;20267;-52
2021/05/02 01:03:45;;;;;;;36.60;32.73;;;;;;;10.51;69.15;101121.88;6087449;28;20268;-57
2021/05/02 01:07:09;;;;;;;34.60;31.10;;;;;;;10.54;68.96;101128.81;6110128;28;20602;-57
2021/05/02 01:10:31;;;;;;;35.20;31.43;;;;;;;10.49;68.51;101130.56;6116359;28;20236;-54
2021/05/02 01:13:56;;;;;;;35.03;31.63;;;;;;;10.24;69.34;101128.88;6113276;28;20231;-58
2021/05/02 01:17:19;;;;;;;36.57;32.77;;;;;;;10.35;68.78;101134.09;6110777;29;20240;-57
2021/05/02 01:20:42;;;;;;;34.77;31.23;;;;;;;10.39;68.04;101140.13;6109712;29;20232;-57
2021/05/02 01:24:07;;;;;;;35.70;31.90;;;;;;;10.19;68.84;101132.34;6111390;28;20235;-57
2021/05/02 01:27:29;;;;;;;34.63;31.17;;;;;;;10.52;67.30;101140.97;6105573;28;20263;-56
2021/05/02 01:30:50;;;;;;;35.50;32.20;;;;;;;10.36;67.82;101140.16;6110694;29;20782;-55
2021/05/02 01:34:11;;;;;;;35.67;32.07;;;;;;;10.35;67.59;101130.59;6107714;29;20247;-56
2021/05/02 01:37:32;;;;;;;33.63;30.27;;;;;;;10.37;67.55;101137.56;6115993;28;20228;-56
2021/05/02 01:40:54;;;;;;;34.00;30.70;;;;;;;10.39;67.56;101132.31;6115687;28;20615;-58
2021/05/02 01:44:15;;;;;;;32.40;29.07;;;;;;;10.22;67.80;101128.00;6119035;29;20235;-56
2021/05/02 01:47:38;;;;;;;32.10;28.77;;;;;;;10.21;67.08;101130.63;6113818;28;20251;-56
2021/05/02 01:51:01;;;;;;;31.80;28.73;;;;;;;10.34;67.23;101131.50;6109016;28;20569;-52
2021/05/02 01:54:23;;;;;;;34.13;30.83;;;;;;;10.36;66.54;101121.94;6103767;29;20511;-56
2021/05/02 01:57:47;;;;;;;34.40;31.00;;;;;;;10.29;66.88;101123.66;6101876;28;20536;-56
2021/05/02 02:01:13;;;;;;;33.13;29.90;;;;;;;10.34;66.66;101119.34;6106561;29;20673;-53
2021/05/02 02:04:35;;;;;;;34.50;31.00;;;;;;;10.23;67.20;101118.47;6112102;28;20330;-55
2021/05/02 02:07:56;;;;;;;32.33;29.13;;;;;;;10.25;67.09;101121.94;6109079;28;20240;-53
2021/05/02 02:11:17;;;;;;;31.77;28.77;;;;;;;9.97;67.95;101126.34;6088309;29;20696;-57
2021/05/02 02:14:40;;;;;;;34.23;30.53;;;;;;;10.22;66.92;101129.75;6108933;28;20237;-56
2021/05/02 02:18:00;;;;;;;33.67;30.07;;;;;;;10.21;67.26;101121.06;6108504;29;20228;-55
2021/05/02 02:21:23;;;;;;;36.20;32.67;;;;;;;10.27;66.74;101119.31;6112164;29;20243;-56
2021/05/02 02:24:46;;;;;;;35.03;31.60;;;;;;;10.29;66.81;101115.84;6109710;28;20235;-56
2021/05/02 02:28:12;;;;;;;38.13;34.50;;;;;;;10.19;66.60;101120.19;6106521;28;20517;-54
2021/05/02 02:31:35;;;;;;;33.20;29.97;;;;;;;10.13;66.83;101116.75;6103976;28;20231;-56
2021/05/02 02:34:57;;;;;;;33.77;30.27;;;;;;;9.99;67.10;101117.66;6112277;29;20334;-55
2021/05/02 02:38:20;;;;;;;36.80;33.00;;;;;;;9.87;67.40;101120.28;6105136;29;20567;-57
2021/05/02 02:41:44;;;;;;;33.47;30.23;;;;;;;10.05;67.08;101124.59;6107635;29;20693;-57
2021/05/02 02:45:07;;;;;;;35.80;32.20;;;;;;;10.04;66.91;101120.22;6113568;29;20232;-54
2021/05/02 02:48:30;;;;;;;34.23;30.87;;;;;;;9.92;67.06;101128.94;6107763;29;20497;-56
2021/05/02 02:51:54;;;;;;;34.73;31.37;;;;;;;9.89;67.37;101122.88;6111561;28;20236;-58
2021/05/02 02:55:17;;;;;;;35.20;31.57;;;;;;;9.79;67.35;101124.59;6110223;29;20243;-57
2021/05/02 02:58:41;;;;;;;35.20;31.67;;;;;;;9.99;66.97;101122.84;6103476;28;20506;-56
2021/05/02 03:02:02;;;;;;;35.83;32.23;;;;;;;9.96;66.89;101125.44;6109079;29;20236;-53
2021/05/02 03:05:24;;;;;;;36.67;33.20;;;;;;;9.86;67.36;101135.00;6104628;28;20235;-55
2021/05/02 03:08:48;;;;;;;37.10;33.20;;;;;;;9.86;67.44;101128.94;6110417;29;20997;-57
2021/05/02 03:12:10;;;;;;;36.50;32.90;;;;;;;9.85;67.14;101130.69;6115948;29;20255;-56
2021/05/02 03:15:32;;;;;;;33.63;30.37;;;;;;;9.80;67.24;101137.63;6116314;29;20322;-57
2021/05/02 03:18:58;;;;;;;35.60;32.13;;;;;;;9.69;67.92;101146.28;6116262;29;20262;-58
2021/05/02 03:22:32;;;;;;;33.93;30.70;;;;;;;9.58;68.07;101141.13;6120212;29;20235;-55
2021/05/02 03:25:56;;;;;;;33.93;30.70;;;;;;;9.60;68.34;101137.63;6110495;28;20235;-55
2021/05/02 03:29:18;;;;;;;32.43;29.27;;;;;;;9.62;68.18;101129.84;6115491;28;20248;-56
2021/05/02 03:32:47;;;;;;;32.20;29.20;;;;;;;9.82;67.48;101137.63;6113003;28;20240;-58
2021/05/02 03:36:10;;;;;;;33.27;29.93;;;;;;;9.39;68.90;101146.28;6121823;28;20243;-55
2021/05/02 03:39:32;;;;;;;33.07;29.77;;;;;;;9.57;68.15;101139.38;6109114;29;20231;-57
2021/05/02 03:42:53;;;;;;;30.10;27.10;;;;;;;9.43;68.44;101137.63;6116615;28;20231;-57
2021/05/02 03:49:51;;;;;;;33.10;29.87;;;;;;;9.44;68.48;101146.28;6116338;28;20236;-56
2021/05/02 03:53:12;;;;;;;37.77;34.03;;;;;;;9.36;68.31;101143.66;6112180;28;20231;-53
2021/05/02 03:56:38;;;;;;;37.33;33.57;;;;;;;9.40;68.20;101147.16;6111926;28;20232;-56
2021/05/02 03:59:59;;;;;;;32.87;29.67;;;;;;;9.29;69.14;101151.50;6123822;28;20227;-55
2021/05/02 04:03:19;;;;;;;37.07;33.07;;;;;;;9.46;68.36;101147.19;6076501;28;20233;-54
2021/05/02 04:06:40;;;;;;;38.70;34.90;;;;;;;9.05;70.12;101160.94;6115415;29;20330;-55
2021/05/02 04:10:01;;;;;;;36.43;32.57;;;;;;;9.34;68.83;101170.53;6101672;28;20338;-57
2021/05/02 04:13:22;;;;;;;37.93;33.87;;;;;;;9.52;68.46;101159.28;6123537;28;20330;-55
2021/05/02 04:16:43;;;;;;;37.20;33.47;;;;;;;9.38;68.49;101161.88;6116859;28;20605;-54
2021/05/02 04:20:05;;;;;;;39.97;35.77;;;;;;;9.22;69.38;101172.25;6122292;28;20236;-58
2021/05/02 04:23:26;;;;;;;39.67;35.67;;;;;;;9.46;68.60;101157.56;6106562;28;20240;-53
2021/05/02 04:26:47;;;;;;;42.17;36.57;;;;;;;9.46;68.50;101162.78;6108706;29;20657;-56
2021/05/02 04:30:10;;;;;;;40.13;36.00;;;;;;;9.40;68.67;101160.13;6112945;29;20503;-54
2021/05/02 04:33:31;;;;;;;40.50;36.20;;;;;;;9.35;68.87;101167.94;6109545;28;20681;-52
2021/05/02 04:36:54;;;;;;;41.87;37.77;;;;;;;9.36;69.14;101169.66;6107576;29;20614;-56
2021/05/02 04:40:14;;;;;;;40.77;36.23;;;;;;;9.42;68.69;101168.81;6117480;28;20239;-57
2021/05/02 04:43:35;;;;;;;40.73;35.97;;;;;;;9.52;68.40;101175.78;6114825;29;20244;-56
2021/05/02 04:46:56;;;;;;;42.03;37.50;;;;;;;9.36;68.67;101179.19;6104808;28;20318;-57
2021/05/02 04:50:16;;;;;;;38.30;34.20;;;;;;;9.41;68.72;101175.75;6112377;28;20236;-55
2021/05/02 04:53:37;;;;;;;42.23;37.87;;;;;;;9.41;69.12;101182.69;6108654;29;20243;-54
2021/05/02 04:56:57;;;;;;;46.37;41.47;;;;;;;9.26;69.28;101180.91;6106777;28;20330;-55
2021/05/02 05:00:19;;;;;;;46.90;41.83;;;;;;;9.32;69.18;101178.31;6110906;28;20232;-55
2021/05/02 05:03:40;;;;;;;44.20;39.40;;;;;;;9.50;67.96;101172.31;6109635;29;20351;-55
2021/05/02 05:07:01;;;;;;;40.50;36.20;;;;;;;9.79;67.75;101182.72;6118478;29;20239;-56
2021/05/02 05:10:21;;;;;;;42.60;38.00;;;;;;;10.01;66.54;101191.38;6118003;29;20227;-56
2021/05/02 05:13:42;;;;;;;41.10;36.67;;;;;;;9.69;66.28;101185.31;6119203;28;20325;-58
2021/05/02 05:17:02;;;;;;;42.73;37.27;;;;;;;9.66;66.75;101188.78;6114144;29;20232;-56
2021/05/02 05:20:24;;;;;;;42.27;37.83;;;;;;;9.79;66.22;101187.03;6114475;29;20239;-53
2021/05/02 05:23:44;;;;;;;42.57;38.07;;;;;;;9.73;65.80;101184.44;6117192;28;20289;-52
2021/05/02 05:27:05;;;;;;;43.33;38.57;;;;;;;9.62;66.60;101190.50;6118679;28;20261;-54
2021/05/02 05:30:26;;;;;;;44.13;39.53;;;;;;;9.31;67.52;101206.94;6118916;29;20263;-55
2021/05/02 05:33:47;;;;;;;42.00;37.50;;;;;;;9.52;66.57;101204.38;6108660;28;20236;-58
2021/05/02 05:37:08;;;;;;;43.47;38.80;;;;;;;9.55;66.36;101211.31;6115172;29;20678;-56
2021/05/02 05:40:29;;;;;;;44.47;39.93;;;;;;;9.94;65.43;101214.78;6116970;29;20240;-56
2021/05/02 05:43:49;;;;;;;41.67;37.33;;;;;;;9.72;65.45;101211.31;6108239;29;20232;-55
2021/05/02 05:47:12;;;;;;;40.40;36.23;;;;;;;9.66;65.61;101220.84;6118538;29;20231;-57
2021/05/02 05:50:32;;;;;;;35.97;32.40;;;;;;;9.85;65.17;101216.53;6118906;29;20251;-54
2021/05/02 05:53:54;;;;;;;36.33;32.93;;;;;;;10.07;65.02;101219.13;6116345;29;20248;-59
2021/05/02 05:57:14;;;;;;;30.83;27.83;;;;;;;10.36;63.64;101218.25;6117450;28;20239;-51
2021/05/02 06:00:34;;;;;;;30.03;27.13;;;;;;;10.33;63.66;101219.16;6118531;28;20227;-57
2021/05/02 06:03:56;;;;;;;28.67;25.87;;;;;;;10.32;63.74;101217.41;6117670;29;20265;-58
2021/05/02 06:07:17;;;;;;;28.93;26.03;;;;;;;10.40;63.12;101218.25;6117035;29;20236;-56
2021/05/02 06:10:38;;;;;;;26.73;24.13;;;;;;;10.41;62.54;101222.59;6112592;29;20500;-54
2021/05/02 06:13:59;;;;;;;25.20;22.87;;;;;;;10.36;63.33;101221.72;6114826;29;20625;-57
2021/05/02 06:17:20;;;;;;;25.50;22.93;;;;;;;10.52;61.93;101219.09;6125688;28;20224;-58
2021/05/02 06:20:40;;;;;;;24.50;22.23;;;;;;;10.75;61.64;101229.44;6116387;29;20223;-57
2021/05/02 06:24:02;;;;;;;25.37;22.90;;;;;;;10.49;63.11;101224.28;6116025;29;20228;-58
2021/05/02 06:27:24;;;;;;;24.33;22.03;;;;;;;10.61;62.18;101227.75;6117953;29;20507;-53
2021/05/02 06:30:44;;;;;;;24.20;21.80;;;;;;;10.51;62.28;101223.44;6115092;29;20224;-56
2021/05/02 06:34:05;;;;;;;23.80;21.50;;;;;;;10.46;62.48;101219.13;6108910;29;20756;-57
2021/05/02 06:37:26;;;;;;;27.70;25.20;;;;;;;10.58;62.09;101225.13;6117828;28;20890;-54
2021/05/02 06:40:46;;;;;;;26.67;24.03;;;;;;;10.86;61.15;101219.88;6105992;29;20236;-57
2021/05/02 06:44:08;;;;;;;19.60;17.67;;;;;;;10.73;60.88;101219.03;6116743;28;20322;-57
2021/05/02 06:47:28;;;;;;;19.17;17.37;;;;;;;10.76;61.16;101213.81;6107317;28;20599;-56
2021/05/02 06:50:49;;;;;;;18.07;16.40;;;;;;;11.06;59.69;101224.13;6111688;28;20243;-57
2021/05/02 06:54:10;;;;;;;18.10;16.40;;;;;;;11.27;59.78;101220.56;6099787;29;20652;-56
2021/05/02 06:57:30;;;;;;;18.13;16.43;;;;;;;11.14;59.81;101225.81;6112414;28;20239;-53
2021/05/02 07:00:52;;;;;;;16.53;15.03;;;;;;;11.35;58.08;101214.41;6105592;29;20240;-57
2021/05/02 07:04:13;;;;;;;18.20;16.60;;;;;;;11.54;58.54;101225.59;6108700;29;20231;-57
2021/05/02 07:07:33;;;;;;;18.23;16.60;;;;;;;11.79;57.45;101222.81;6116178;29;20232;-56
2021/05/02 07:10:53;;;;;;;17.90;16.37;;;;;;;11.92;56.36;101227.09;6116778;28;20235;-59
2021/05/02 07:14:14;;;;;;;17.87;16.07;;;;;;;11.61;56.69;101222.06;6113620;29;20231;-56
2021/05/02 07:17:36;;;;;;;16.57;14.87;;;;;;;12.49;56.40;101223.09;6115203;29;20231;-68
2021/05/02 07:20:56;;;;;;;17.60;16.00;;;;;;;12.11;56.18;101221.72;6112839;28;20633;-68
2021/05/02 07:24:17;;;;;;;11.40;10.40;;;;;;;12.77;57.34;101232.34;6110940;29;20618;-70
2021/05/02 07:27:38;;;;;;;12.30;11.30;;;;;;;13.31;56.84;101228.22;6125909;28;20231;-70
2021/05/02 07:30:58;;;;;;;15.17;13.67;;;;;;;11.90;54.82;101228.81;6116491;29;20660;-70
2021/05/02 07:34:22;;;;;;;15.67;14.17;;;;;;;11.51;57.46;101230.81;6111862;29;20235;-69
2021/05/02 07:37:43;;;;;;;13.70;12.47;;;;;;;12.36;54.94;101236.25;6114524;29;20235;-70
2021/05/02 07:41:04;;;;;;;13.70;12.30;;;;;;;12.90;53.23;101229.59;6105958;29;20247;-68
2021/05/02 07:44:25;;;;;;;12.97;11.77;;;;;;;13.53;50.11;101229.66;6111286;28;20260;-69
2021/05/02 07:47:45;;;;;;;11.93;10.93;;;;;;;13.79;50.12;101228.38;6114320;29;20611;-70
2021/05/02 07:51:06;;;;;;;12.90;11.77;;;;;;;13.02;51.82;101233.81;6107846;29;20610;-55
2021/05/02 07:54:28;;;;;;;14.70;13.40;;;;;;;13.10;52.14;101238.03;6113231;28;20232;-58
2021/05/02 07:57:49;;;;;;;46.67;36.27;;;;;;;13.07;55.21;101240.72;6119447;29;20334;-53
2021/05/02 08:01:09;;;;;;;354.37;325.50;;;;;;;13.95;49.82;101229.84;6106002;28;20232;-52
2021/05/02 08:04:29;;;;;;;308.97;279.33;;;;;;;13.51;49.46;101234.06;6105648;29;20570;-53
2021/05/02 08:07:50;;;;;;;702.77;634.50;;;;;;;14.35;49.16;101234.41;6118979;28;20618;-57
2021/05/02 08:11:11;;;;;;;577.10;531.08;;;;;;;14.95;50.47;101229.81;6105009;28;20749;-54
2021/05/02 08:14:31;;;;;;;104.70;95.53;;;;;;;13.03;49.87;101239.03;6119787;29;20655;-55
2021/05/02 08:17:52;;;;;;;17.37;15.37;;;;;;;12.30;49.97;101233.72;6118833;29;20244;-52
2021/05/02 08:21:12;;;;;;;11.37;10.43;;;;;;;12.93;48.50;101240.00;6107806;28;20223;-52
2021/05/02 08:24:33;;;;;;;11.23;10.33;;;;;;;13.23;49.14;101240.50;6101316;29;20323;-51
2021/05/02 08:27:54;;;;;;;10.53;9.63;;;;;;;13.16;48.32;101243.22;6119530;29;20323;-58
2021/05/02 08:31:15;;;;;;;11.27;10.27;;;;;;;12.77;48.50;101244.53;6108835;29;20228;-56
2021/05/02 08:34:35;;;;;;;10.43;9.53;;;;;;;13.29;47.71;101245.66;6113122;29;20334;-56
2021/05/02 08:37:56;;;;;;;10.80;9.90;;;;;;;13.28;47.48;101254.38;6118868;28;20262;-54
2021/05/02 08:41:17;;;;;;;9.07;8.27;;;;;;;12.51;48.76;101258.75;6113264;28;20918;-56
2021/05/02 08:44:38;;;;;;;11.43;10.43;;;;;;;12.68;47.55;101257.69;6112272;28;20232;-54
2021/05/02 08:47:59;;;;;;;10.57;9.57;;;;;;;12.06;49.54;101258.31;6121739;28;20330;-54
2021/05/02 08:51:20;;;;;;;13.20;12.03;;;;;;;11.80;52.83;101258.47;6117622;28;20235;-54
2021/05/02 08:54:40;;;;;;;16.60;15.17;;;;;;;11.56;54.12;101260.34;6114381;29;20244;-54
2021/05/02 08:58:03;;;;;;;16.27;14.67;;;;;;;11.16;55.50;101257.94;6111654;28;20252;-54
2021/05/02 09:01:28;;;;;;;16.13;14.43;;;;;;;11.35;53.91;101252.66;6113578;29;20232;-52
2021/05/02 09:04:54;;;;;;;11.37;10.37;;;;;;;10.90;54.04;101263.28;6113785;28;20236;-54
2021/05/02 09:08:30;;;;;;;10.33;9.33;;;;;;;12.27;50.13;101252.03;6115663;29;20307;-56
2021/05/02 09:11:52;;;;;;;10.57;9.57;;;;;;;13.22;47.60;101241.38;6116161;28;20235;-56
2021/05/02 09:15:20;;;;;;;9.90;9.03;;;;;;;13.29;46.83;101253.50;6119827;29;20247;-55
2021/05/02 09:18:44;;;;;;;10.60;9.67;;;;;;;14.02;45.74;101250.72;6106194;29;20326;-51
2021/05/02 09:22:11;;;;;;;8.57;7.77;;;;;;;14.15;43.39;101244.38;6112772;29;20239;-52
2021/05/02 09:25:44;;;;;;;8.43;7.63;;;;;;;13.76;43.17;101245.00;6109490;29;20228;-48
2021/05/02 09:29:06;;;;;;;9.83;8.83;;;;;;;13.93;43.83;101247.34;6107284;28;20515;-53
2021/05/02 09:32:44;;;;;;;8.33;7.53;;;;;;;14.25;43.88;101252.94;6064676;29;20568;-52
2021/05/02 09:36:08;;;;;;;8.97;8.17;;;;;;;14.18;43.13;101257.41;6115752;29;20615;-55
2021/05/02 09:39:36;;;;;;;8.40;7.70;;;;;;;14.66;43.25;101244.38;6121930;28;20697;-52
2021/05/02 09:42:57;;;;;;;7.93;7.40;;;;;;;14.35;42.34;101247.50;6113847;29;20314;-53
2021/05/02 09:46:24;;;;;;;7.17;6.57;;;;;;;14.30;41.81;101244.09;6112082;28;20247;-54
2021/05/02 09:50:05;;;;;;;7.70;7.03;;;;;;;14.25;42.18;101242.44;6118094;28;20239;-51
2021/05/02 09:53:26;;;;;;;7.10;6.50;;;;;;;12.84;44.51;101248.81;6127888;28;20251;-53
2021/05/02 09:56:48;;;;;;;5.40;5.00;;;;;;;11.91;45.40;101253.22;6118233;28;20231;-52
2021/05/02 10:00:10;;;;;;;5.43;4.90;;;;;;;12.60;43.72;101255.16;6128991;28;20240;-53
2021/05/02 10:03:31;;;;;;;5.87;5.43;;;;;;;11.93;46.98;101254.06;6115560;28;20237;-53
2021/05/02 10:06:53;;;;;;;5.60;5.17;;;;;;;11.95;45.66;101257.53;6110237;28;20354;-50
2021/05/02 10:10:14;;;;;;;6.43;5.83;;;;;;;12.14;45.70;101253.03;6119082;28;20248;-51
2021/05/02 10:13:37;;;;;;;5.33;4.83;;;;;;;12.72;45.79;101251.59;6111612;29;20244;-53
2021/05/02 10:16:58;;;;;;;4.73;4.40;;;;;;;13.99;43.09;101241.16;6110891;28;20240;-54
2021/05/02 10:20:19;;;;;;;5.50;5.10;;;;;;;13.40;43.02;101246.41;6107909;28;20244;-51
2021/05/02 10:23:42;;;;;;;5.27;4.80;;;;;;;12.98;43.87;101248.66;6099746;28;20603;-55
2021/05/02 10:27:07;;;;;;;4.37;4.07;;;;;;;13.07;42.34;101245.09;6112182;28;20244;-52
2021/05/02 10:30:29;;;;;;;4.40;4.10;;;;;;;14.24;39.98;101245.97;6126525;28;20231;-53
2021/05/02 10:33:51;;;;;;;4.73;4.30;;;;;;;14.49;39.71;101241.16;6113653;28;20239;-51
2021/05/02 10:37:28;;;;;;;4.77;4.37;;;;;;;13.63;40.06;101243.47;6103420;28;20256;-52
2021/05/02 10:40:49;;;;;;;5.00;4.63;;;;;;;13.85;40.11;101237.91;6111844;28;20231;-52
2021/05/02 10:44:32;;;;;;;5.60;4.53;;;;;;;14.33;37.44;101230.97;6110719;28;20255;-57
2021/05/02 10:47:53;;;;;;;4.90;4.50;;;;;;;14.28;38.23;101230.16;6106157;28;20260;-50
2021/05/02 10:51:32;;;;;;;5.57;5.17;;;;;;;12.72;39.83;101242.00;6113626;28;20231;-54
2021/05/02 10:55:06;;;;;;;4.90;4.50;;;;;;;12.62;40.75;101240.38;6112043;29;20796;-52
2021/05/02 10:58:29;;;;;;;5.13;4.33;;;;;;;13.71;39.44;101230.28;6112887;28;20243;-56
2021/05/02 11:01:50;;;;;;;4.33;4.00;;;;;;;13.42;38.87;101230.72;6115551;29;20610;-50
2021/05/02 11:05:11;;;;;;;4.43;4.07;;;;;;;13.71;37.13;101225.03;6113052;28;20227;-53
2021/05/02 11:08:48;;;;;;;6.23;5.10;;;;;;;13.28;39.92;101242.19;6116322;28;20236;-50
2021/05/02 11:12:25;;;;;;;4.73;4.33;;;;;;;13.19;40.65;101248.38;6111161;28;20713;-54
2021/05/02 11:15:46;;;;;;;4.77;4.37;;;;;;;14.16;39.12;101236.50;6111500;28;21482;-53
2021/05/02 11:19:08;;;;;;;5.67;5.17;;;;;;;14.54;38.35;101231.47;6104029;28;20235;-52
2021/05/02 11:22:29;;;;;;;4.90;4.60;;;;;;;13.43;41.31;101229.78;6115288;29;20789;-51
2021/05/02 11:25:52;;;;;;;5.53;5.03;;;;;;;14.14;40.54;101229.56;6113053;29;20224;-50
2021/05/02 11:29:15;;;;;;;5.70;5.20;;;;;;;13.00;42.52;101241.66;6107474;28;20593;-51
2021/05/02 11:32:38;;;;;;;5.63;5.13;;;;;;;12.70;43.82;101240.28;6113934;28;20235;-53
2021/05/02 11:35:59;;;;;;;5.83;5.27;;;;;;;13.98;42.07;101235.06;6114257;28;20263;-54
2021/05/02 11:39:42;;;;;;;5.30;4.90;;;;;;;14.18;42.04;101239.94;6116533;29;20544;-56
2021/05/02 11:43:03;;;;;;;4.70;4.30;;;;;;;13.67;41.93;101236.44;6119203;29;20231;-51
2021/05/02 11:46:28;;;;;;;5.00;4.50;;;;;;;14.13;42.00;101243.53;6115904;29;20243;-70
2021/05/02 11:49:49;;;;;;;5.20;4.80;;;;;;;13.87;40.08;101236.13;6118861;28;20602;-71
2021/05/02 11:53:10;;;;;;;3.93;3.63;;;;;;;14.37;38.83;101243.09;6113599;29;20351;-71
2021/05/02 11:56:32;;;;;;;4.93;4.23;;;;;;;15.86;36.96;101235.69;6116635;29;20236;-70
2021/05/02 11:59:53;;;;;;;4.50;4.13;;;;;;;14.85;40.03;101238.75;6113932;29;20551;-71
2021/05/02 12:03:17;;;;;;;5.13;4.73;;;;;;;17.07;37.36;101240.34;6102724;28;20610;-54
2021/05/02 12:06:39;;;;;;;4.60;4.30;;;;;;;17.09;37.57;101245.56;6111536;29;20250;-53
2021/05/02 12:10:14;;;;;;;4.83;4.50;;;;;;;16.05;39.23;101252.72;6108064;29;20319;-52
2021/05/02 12:13:36;;;;;;;5.30;4.83;;;;;;;15.18;41.47;101254.69;6111766;29;20229;-56
2021/05/02 12:16:59;;;;;;;5.70;5.20;;;;;;;13.86;42.35;101257.94;6118332;28;20264;-54
2021/05/02 12:20:24;;;;;;;5.20;4.80;;;;;;;14.19;42.78;101261.78;6112195;29;20622;-53
2021/05/02 12:23:46;;;;;;;5.47;5.07;;;;;;;14.99;40.71;101249.84;6115550;28;20613;-55
2021/05/02 12:27:08;;;;;;;6.13;5.63;;;;;;;14.80;41.02;101261.59;6113754;28;20231;-55
2021/05/02 12:30:29;;;;;;;5.13;4.67;;;;;;;14.35;41.35;101259.75;6114996;28;20244;-49
2021/05/02 12:33:49;;;;;;;5.30;4.90;;;;;;;14.45;41.39;101255.22;6114405;29;20240;-53
2021/05/02 12:37:12;;;;;;;3.77;3.43;;;;;;;15.29;38.09;101255.31;6120722;29;20235;-54
2021/05/02 12:40:33;;;;;;;3.87;3.60;;;;;;;20.05;30.02;101234.25;6108057;29;20965;-55
2021/05/02 12:43:54;;;;;;;3.05;2.85;;;;;;;20.58;28.19;101227.53;6103660;29;20240;-53
2021/05/02 12:47:16;;;;;;;3.53;3.22;;;;;;;19.35;30.50;101242.31;6113183;29;20227;-54
2021/05/02 12:50:39;;;;;;;2.47;2.28;;;;;;;19.20;30.59;101236.75;6105908;29;20240;-53
2021/05/02 12:54:06;;;;;;;4.05;3.50;;;;;;;15.94;36.04;101239.00;6119057;29;20232;-49
2021/05/02 12:57:27;;;;;;;3.30;2.55;;;;;;;20.40;29.14;101228.38;6117324;28;20323;-55
2021/05/02 13:00:55;;;;;;;4.20;3.80;;;;;;;22.02;27.97;101209.31;6117647;29;20236;-53
2021/05/02 13:04:16;;;;;;;2.78;2.58;;;;;;;18.52;32.14;101235.69;6111288;29;20331;-55
2021/05/02 13:07:38;;;;;;;3.15;2.95;;;;;;;20.24;31.25;101234.31;6118405;28;20406;-53
2021/05/02 13:10:59;;;;;;;3.13;2.92;;;;;;;21.35;29.73;101232.00;6110287;29;20430;-54
2021/05/02 13:14:22;;;;;;;3.45;3.25;;;;;;;23.54;25.59;101220.69;6118599;28;20319;-56
2021/05/02 13:18:07;;;;;;;3.33;3.03;;;;;;;14.14;42.99;101245.28;6118055;28;20264;-52
2021/05/02 13:21:27;;;;;;;5.25;3.33;;;;;;;12.95;46.12;101248.69;6111690;29;20236;-55
2021/05/02 13:25:00;;;;;;;3.45;3.25;;;;;;;14.37;41.90;101237.00;6107484;28;20760;-56
2021/05/02 13:28:20;;;;;;;3.15;2.63;;;;;;;19.41;30.77;101221.00;6117233;29;20227;-55
2021/05/02 13:31:59;;;;;;;2.33;2.10;;;;;;;21.22;27.91;101217.63;6115609;29;20609;-55
2021/05/02 13:35:19;;;;;;;2.88;2.47;;;;;;;22.78;25.38;101210.72;6104124;28;20251;-52
2021/05/02 13:38:39;;;;;;;2.45;2.25;;;;;;;18.24;31.98;101226.13;6112191;28;20241;-53
2021/05/02 13:42:01;;;;;;;2.50;2.30;;;;;;;14.46;38.29;101229.00;6110270;29;20231;-52
2021/05/02 13:45:22;;;;;;;2.45;2.22;;;;;;;17.84;32.40;101221.34;6111870;29;20594;-54
2021/05/02 13:48:45;;;;;;;2.10;2.00;;;;;;;17.00;34.02;101223.03;6112735;29;20224;-55
2021/05/02 13:52:05;;;;;;;3.33;1.80;;;;;;;20.06;29.19;101219.22;6112793;29;20235;-55
2021/05/02 13:55:26;;;;;;;2.63;2.40;;;;;;;18.39;31.18;101230.00;6094169;29;20589;-52
2021/05/02 13:58:46;;;;;;;2.47;2.27;;;;;;;15.95;35.90;101232.81;6113609;29;20244;-53
2021/05/02 14:02:07;;;;;;;3.17;2.73;;;;;;;14.42;38.86;101250.03;6110750;29;20239;-52
2021/05/02 14:05:28;;;;;;;3.23;2.73;;;;;;;15.67;37.92;101264.09;6111493;29;20240;-53
2021/05/02 14:08:49;;;;;;;3.87;3.37;;;;;;;14.17;43.89;101266.16;6096091;29;21160;-54
2021/05/02 14:12:10;;;;;;;3.77;3.47;;;;;;;12.34;50.36;101273.72;6112843;29;20235;-55
2021/05/02 14:15:30;;;;;;;4.53;3.90;;;;;;;12.02;51.51;101274.88;6105197;29;20617;-58
2021/05/02 14:18:50;;;;;;;4.83;4.20;;;;;;;11.92;51.26;101294.97;6104145;28;20235;-53
2021/05/02 14:22:12;;;;;;;4.00;3.60;;;;;;;11.95;51.36;101286.22;6114132;28;20267;-57
2021/05/02 14:25:32;;;;;;;3.93;3.63;;;;;;;10.82;53.90;101297.16;6095374;28;20323;-53
2021/05/02 14:28:53;;;;;;;4.03;3.17;;;;;;;11.15;53.37;101300.53;6121537;28;20240;-55
2021/05/02 14:32:13;;;;;;;3.53;3.23;;;;;;;10.25;56.34;101298.94;6101041;29;20237;-54
2021/05/02 14:35:34;;;;;;;3.87;3.57;;;;;;;10.41;56.67;101295.50;6105248;29;20327;-55
2021/05/02 14:38:55;;;;;;;4.33;3.93;;;;;;;10.56;56.38;101297.19;6106078;29;20235;-51
2021/05/02 14:42:16;;;;;;;4.50;3.70;;;;;;;9.32;61.33;101310.03;6110306;28;20247;-52
2021/05/02 14:45:37;;;;;;;5.20;4.33;;;;;;;9.28;62.06;101327.31;6103288;28;20228;-54
2021/05/02 14:48:57;;;;;;;5.10;3.80;;;;;;;9.58;61.78;101316.19;6113333;28;20243;-53
2021/05/02 14:52:18;;;;;;;5.67;4.57;;;;;;;9.80;61.17;101318.84;6101830;29;20236;-54
2021/05/02 14:55:39;;;;;;;4.90;4.40;;;;;;;9.83;61.30;101311.06;6110925;28;20259;-52
2021/05/02 14:59:01;;;;;;;4.63;4.23;;;;;;;10.41;59.81;101318.94;6119294;29;20256;-51
2021/05/02 15:02:22;;;;;;;3.73;3.43;;;;;;;10.13;60.35;101319.75;6112382;29;20231;-55
2021/05/02 15:05:42;;;;;;;4.20;3.83;;;;;;;10.12;62.24;101320.59;6070066;28;20246;-56
2021/05/02 15:09:03;;;;;;;4.67;4.20;;;;;;;9.75;63.77;101324.03;6131131;28;20601;-52
2021/05/02 15:12:27;;;;;;;7.17;6.43;;;;;;;9.38;66.05;101336.03;6116086;28;20233;-56
2021/05/02 15:15:47;;;;;;;7.27;6.17;;;;;;;9.37;66.36;101336.91;6117362;28;20710;-53
2021/05/02 15:19:08;;;;;;;7.93;7.23;;;;;;;9.32;68.37;101341.22;6111865;28;20236;-55
2021/05/02 15:22:29;;;;;;;7.17;6.50;;;;;;;9.41;68.06;101354.25;6098606;28;20335;-54
2021/05/02 15:25:50;;;;;;;7.63;6.87;;;;;;;9.04;68.83;101346.28;6111289;29;20232;-52
2021/05/02 15:29:12;;;;;;;8.53;7.07;;;;;;;8.87;70.12;101352.22;6111224;28;20228;-53
2021/05/02 15:32:32;;;;;;;8.13;7.23;;;;;;;9.13;69.04;101348.94;6112965;29;20334;-51
2021/05/02 15:35:53;;;;;;;6.90;5.70;;;;;;;10.31;64.17;101356.22;6117161;28;20232;-51